Latest Weather Observations for Edithburgh

IDS60801

Issued at 4:05 pm CST Thursday 28 August 2014 (issued every 30 minutes, with the page automatically refreshed every 10 minutes)

About weather observations | Map of weather stations | Latest weather observations for SA | Other Formats
Station Details ID: 022046 Name: EDITHBURGH Lat: -35.11 Lon: 137.74 Height: 6.0 m
Data from the previous 72 hours. | See also: Recent months at Edithburgh
Date/Time
CST
Temp
°C
App
Temp
°C
Dew
Point
Rel
Hum
%
Delta-T
°C
Wind Press
QNH
hPa
Press
MSL
hPa
Rain
since 9 am
mm
Dir
 
Spd
km/h
Gust
km/h
Spd
kts
Gust
kts
28/04:00pm 16.8 15.7 10.1 64 3.5 NNE 6 7 3 4 1026.7 1026.7 0.0
28/03:30pm 16.6 15.6 11.0 69 3.0 NNE 7 13 4 7 1026.8 1026.8 0.0
28/03:00pm 16.6 15.3 11.2 70 2.9 NNE 9 13 5 7 1026.9 1026.9 0.0
28/02:30pm 16.4 15.1 11.2 71 2.8 NNE 9 15 5 8 1027.1 1027.1 0.0
28/02:00pm 16.6 14.8 11.0 69 3.0 NE 11 15 6 8 1027.1 1027.1 0.0
28/01:30pm 16.9 14.8 11.1 68 3.1 NE 13 17 7 9 1027.2 1027.2 0.0
28/01:00pm 16.9 14.9 11.5 70 2.9 NE 13 17 7 9 1027.6 1027.6 0.0
28/12:30pm 16.9 15.0 11.9 72 2.7 NE 13 17 7 9 1027.9 1027.9 0.0
28/12:00pm 16.6 14.4 12.2 75 2.4 ENE 15 17 8 9 1028.3 1028.3 0.0
28/11:30am 15.8 13.9 11.9 77 2.1 ENE 13 17 7 9 1028.5 1028.5 0.0
28/11:00am 15.8 14.2 11.5 75 2.3 NE 11 15 6 8 1028.8 1028.8 0.0
28/10:30am 15.8 14.1 11.3 74 2.4 NE 11 15 6 8 1028.9 1028.9 0.0
28/10:00am 15.3 14.2 11.8 79 1.9 NNE 9 15 5 8 1028.9 1028.9 0.0
28/09:30am 15.0 13.8 11.6 80 1.8 NNE 9 15 5 8 1028.8 1028.8 0.0
28/09:00am 14.6 13.9 12.0 84 1.4 NNE 7 11 4 6 1028.7 1028.7 0.0
28/08:30am 13.9 13.2 12.0 88 1.0 NNE 7 11 4 6 1028.5 1028.5 0.0
28/08:00am 10.9 9.9 10.3 96 0.3 NNE 6 7 3 4 1028.3 1028.3 0.0
28/07:30am 6.2 4.1 6.0 99 0.1 NNE 6 7 3 4 1027.9 1027.9 0.0
28/07:00am 5.6 3.2 5.4 99 0.1 N 7 7 4 4 1027.9 1027.9 0.0
28/06:30am 6.8 4.9 6.8 100 0.0 N 6 7 3 4 1027.8 1027.8 0.0
28/06:00am 7.1 5.7 7.1 100 0.0 N 4 4 2 2 1027.6 1027.6 0.0
28/05:30am 6.5 4.6 6.5 100 0.0 N 6 6 3 3 1027.2 1027.2 0.0
28/05:00am 5.2 4.1 5.2 100 0.0 CALM 0 0 0 0 1027.0 1027.0 0.0
28/04:30am 6.4 5.5 6.2 99 0.1 CALM 0 0 0 0 1027.1 1027.1 0.0
28/04:00am 6.2 5.3 6.0 99 0.1 CALM 0 0 0 0 1027.0 1027.0 0.0
28/03:30am 6.6 5.7 6.2 97 0.2 CALM 0 0 0 0 1027.0 1027.0 0.0
28/03:00am 7.2 6.5 6.8 97 0.2 CALM 0 0 0 0 1027.1 1027.1 0.0
28/02:30am 7.0 6.2 6.3 95 0.3 CALM 0 0 0 0 1027.4 1027.4 0.0
28/02:00am 7.9 7.4 7.9 100 0.0 CALM 0 0 0 0 1027.5 1027.5 0.0
28/01:30am 6.8 5.8 5.7 93 0.5 CALM 0 0 0 0 1027.6 1027.6 0.0
28/01:00am 6.8 6.0 6.6 99 0.1 CALM 0 0 0 0 1027.8 1027.8 0.0
28/12:30am 5.5 4.4 5.3 99 0.1 CALM 0 0 0 0 1027.9 1027.9 0.0
28/12:00am 7.2 6.6 7.2 100 0.0 SSW 0 0 0 0 1028.0 1028.0 0.0
 
Date/Time
CST
Temp
°C
App
Temp
°C
Dew
Point
Rel
Hum
%
Delta-T
°C
Wind Press
QNH
hPa
Press
MSL
hPa
Rain
since 9 am
mm
Dir
 
Spd
km/h
Gust
km/h
Spd
kts
Gust
kts
27/11:30pm 8.5 7.7 8.3 99 0.1 SSW 2 2 1 1 1028.2 1028.2 0.0
27/11:00pm 9.7 9.1 9.1 96 0.3 SSW 2 4 1 2 1028.1 1028.1 0.0
27/10:30pm 7.8 6.9 7.8 100 0.0 SSW 2 7 1 4 1028.2 1028.2 0.0
27/10:00pm 9.6 9.4 9.0 96 0.3 CALM 0 0 0 0 1028.0 1028.0 0.0
27/09:30pm 8.5 8.0 7.9 96 0.3 CALM 0 0 0 0 1027.9 1027.9 0.0
27/09:00pm 9.3 8.9 8.3 93 0.5 CALM 0 0 0 0 1027.9 1027.9 0.0
27/08:30pm 9.8 9.6 9.2 96 0.3 CALM 0 0 0 0 1027.8 1027.8 0.0
27/08:00pm 9.4 9.1 8.6 95 0.4 CALM 0 0 0 0 1027.5 1027.5 0.0
27/07:30pm 10.1 10.0 9.3 95 0.4 CALM 0 0 0 0 1027.1 1027.1 0.0
27/07:00pm 11.0 10.9 9.6 91 0.7 CALM 0 2 0 1 1026.8 1026.8 0.0
27/06:30pm 11.7 11.2 9.5 86 1.1 NE 2 4 1 2 1026.5 1026.5 0.0
27/06:00pm 13.3 13.2 9.6 78 1.9 CALM 0 0 0 0 1026.2 1026.2 0.0
27/05:30pm 14.8 14.8 9.7 71 2.6 CALM 0 0 0 0 1026.2 1026.2 0.0
27/05:00pm 14.7 13.9 9.6 71 2.6 NE 4 7 2 4 1025.9 1025.9 0.0
27/04:30pm 15.1 13.6 9.0 67 3.1 ENE 7 9 4 5 1025.8 1025.8 0.0
27/04:00pm 15.2 13.4 9.3 68 3.0 ENE 9 13 5 7 1025.7 1025.7 0.0
27/03:30pm 15.5 13.4 9.7 68 3.0 ENE 11 15 6 8 1025.7 1025.7 0.0
27/03:00pm 15.3 12.8 9.7 69 2.9 ENE 13 17 7 9 1025.8 1025.8 0.0
27/02:30pm 15.6 13.1 9.8 68 3.0 E 13 15 7 8 1025.8 1025.8 0.0
27/02:00pm 16.1 14.3 9.5 65 3.4 ENE 9 13 5 7 1026.0 1026.0 0.0
27/01:30pm 16.0 14.4 10.3 69 3.0 ENE 9 15 5 8 1026.3 1026.3 0.0
27/01:00pm 15.8 13.6 9.4 65 3.3 NE 11 15 6 8 1026.3 1026.3 0.0
27/12:30pm 15.6 13.4 10.7 72 2.6 ENE 13 17 7 9 1026.7 1026.7 0.0
27/12:00pm 15.6 13.5 9.8 68 3.0 NE 11 13 6 7 1027.2 1027.2 0.0
27/11:30am 15.5 14.1 9.5 67 3.1 NNE 7 13 4 7 1027.5 1027.5 0.0
27/11:00am 15.2 13.8 9.6 69 2.9 NNE 7 11 4 6 1027.7 1027.7 0.0
27/10:30am 14.4 13.1 10.1 75 2.2 NE 7 9 4 5 1028.0 1028.0 0.0
27/10:00am 14.5 12.4 9.6 72 2.5 NE 11 15 6 8 1028.0 1028.0 0.0
27/09:30am 14.0 12.9 10.5 79 1.8 NE 7 11 4 6 1027.8 1027.8 0.0
27/09:00am 13.5 12.6 11.2 86 1.2 NNE 7 13 4 7 1027.4 1027.4 0.4
27/08:30am 12.9 12.0 10.6 86 1.2 NNE 6 9 3 5 1027.2 1027.2 0.4
27/08:00am 11.0 10.7 10.0 93 0.5 N 2 6 1 3 1026.7 1026.7 0.4
27/07:30am 8.8 7.5 7.5 91 0.6 N 4 6 2 3 1026.4 1026.4 0.4
27/07:00am 7.6 6.1 6.7 94 0.4 NNE 4 7 2 4 1026.0 1026.0 0.4
27/06:30am 9.1 8.6 7.8 92 0.6 CALM 0 0 0 0 1025.9 1025.9 0.4
27/06:00am 10.6 9.5 8.5 87 1.0 N 4 6 2 3 1025.6 1025.6 0.2
27/05:30am 11.3 8.9 8.7 84 1.3 NE 11 15 6 8 1025.0 1025.0 0.2
27/05:00am 11.0 8.3 9.0 87 1.0 NE 13 15 7 8 1024.9 1024.9 0.2
27/04:30am 11.0 8.3 10.2 95 0.4 NE 15 17 8 9 1024.5 1024.5 0.2
27/04:00am 8.7 5.9 8.5 99 0.1 E 13 15 7 8 1024.7 1024.7 0.2
27/03:30am 8.9 7.5 8.9 100 0.0 ESE 6 7 3 4 1025.1 1025.1 0.2
27/03:00am 9.0 7.6 9.0 100 0.0 SE 6 7 3 4 1025.3 1025.3 0.2
27/02:30am 8.8 7.3 8.6 99 0.1 S 6 7 3 4 1025.5 1025.5 0.2
27/02:00am 8.4 6.9 8.4 100 0.0 SE 6 7 3 4 1025.2 1025.2 0.2
27/01:30am 10.1 8.9 9.5 96 0.3 SE 6 7 3 4 1025.2 1025.2 0.0
27/01:00am 9.8 8.4 9.4 97 0.2 SSE 7 9 4 5 1025.2 1025.2 0.0
27/12:30am 10.0 8.9 9.8 99 0.1 SE 6 7 3 4 1025.0 1025.0 0.0
27/12:00am 9.0 7.6 8.8 99 0.1 SE 6 7 3 4 1025.4 1025.4 0.0
 
Date/Time
CST
Temp
°C
App
Temp
°C
Dew
Point
Rel
Hum
%
Delta-T
°C
Wind Press
QNH
hPa
Press
MSL
hPa
Rain
since 9 am
mm
Dir
 
Spd
km/h
Gust
km/h
Spd
kts
Gust
kts
26/11:30pm 8.8 7.1 8.4 97 0.2 S 7 7 4 4 1025.5 1025.5 0.0
26/11:00pm 8.7 6.9 8.1 96 0.3 SSE 7 7 4 4 1025.5 1025.5 0.0
26/10:30pm 8.6 7.0 8.2 97 0.2 S 6 7 3 4 1025.6 1025.6 0.0
26/10:00pm 9.8 8.2 8.6 92 0.6 SE 7 7 4 4 1025.6 1025.6 0.0
26/09:30pm 9.9 8.5 8.7 92 0.6 SE 6 7 3 4 1025.5 1025.5 0.0
26/09:00pm 9.8 8.3 8.6 92 0.6 SE 6 9 3 5 1025.7 1025.7 0.0
26/08:30pm 10.5 8.7 9.5 93 0.5 SE 9 9 5 5 1025.7 1025.7 0.0
26/08:00pm 10.8 9.4 9.6 92 0.6 SE 7 9 4 5 1025.6 1025.6 0.0
26/07:30pm 10.1 8.6 9.3 95 0.4 ESE 7 9 4 5 1025.2 1025.2 0.0
26/07:00pm 10.4 8.5 9.2 92 0.6 ESE 9 11 5 6 1025.0 1025.0 0.0
26/06:30pm 10.9 9.5 9.7 92 0.6 ESE 7 7 4 4 1024.6 1024.6 0.0
26/06:00pm 11.5 10.4 9.9 90 0.8 ESE 6 7 3 4 1024.5 1024.5 0.0
26/05:30pm 12.6 11.3 10.1 85 1.3 ESE 7 9 4 5 1024.3 1024.3 0.0
26/05:00pm 13.3 12.2 10.0 80 1.7 SE 6 7 3 4 1024.4 1024.4 0.0
26/04:30pm 13.7 12.0 10.0 78 1.9 ESE 9 11 5 6 1024.2 1024.2 0.0
26/04:00pm 14.0 12.7 9.9 76 2.1 SE 7 11 4 6 1024.4 1024.4 0.0
26/03:30pm 14.4 13.0 9.5 72 2.5 E 7 9 4 5 1024.4 1024.4 0.0
26/03:00pm 13.9 12.2 9.8 76 2.1 E 9 11 5 6 1024.7 1024.7 0.0
26/02:30pm 13.9 12.6 10.0 77 2.0 ENE 7 13 4 7 1025.1 1025.1 0.0
26/02:00pm 13.5 11.9 10.2 80 1.7 ENE 9 15 5 8 1025.1 1025.1 0.0
26/01:30pm 13.4 11.3 9.7 78 1.9 NE 11 15 6 8 1025.3 1025.3 0.0
26/01:00pm 13.5 10.9 9.4 76 2.1 NE 13 17 7 9 1025.7 1025.7 0.0
26/12:30pm 13.4 10.8 9.2 76 2.1 NE 13 17 7 9 1026.2 1026.2 0.0
26/12:00pm 13.5 11.4 9.6 77 2.0 NE 11 15 6 8 1026.7 1026.7 0.0
26/11:30am 13.5 11.3 9.3 76 2.1 NNE 11 17 6 9 1027.0 1027.0 0.0
26/11:00am 13.0 10.8 9.4 79 1.8 NNE 11 15 6 8 1027.2 1027.2 0.0
26/10:30am 13.2 11.1 9.7 79 1.8 NNE 11 17 6 9 1027.5 1027.5 0.0
26/10:00am 13.4 12.2 10.3 81 1.6 NNE 7 15 4 8 1027.7 1027.7 0.0
26/09:30am 13.0 11.9 10.5 85 1.3 NE 7 11 4 6 1027.7 1027.7 0.0
26/09:00am 12.3 11.8 10.6 89 0.9 NE 4 7 2 4 1027.9 1027.9 0.0
26/08:30am 9.9 8.6 9.3 96 0.3 NNW 6 7 3 4 1028.0 1028.0 0.0
26/08:00am 7.8 5.9 7.6 99 0.1 NNW 7 7 4 4 1028.0 1028.0 0.0
26/07:30am 5.0 2.5 4.8 99 0.1 NNW 7 7 4 4 1027.7 1027.7 0.0
26/07:00am 4.3 1.6 3.6 95 0.3 N 7 9 4 5 1027.4 1027.4 0.0
26/06:40am 4.4 1.6 3.4 93 0.4 N 7 9 4 5 1027.2 1027.2 0.0
26/06:30am 9.4 7.6 8.1 92 0.6 NE 7 11 4 6 1027.0 1027.0 0.0
26/06:00am 8.4 6.7 7.5 94 0.4 ENE 6 7 3 4 1026.7 1026.7 0.0
26/05:30am 9.0 7.3 7.5 90 0.7 ENE 6 7 3 4 1026.4 1026.4 0.0
26/05:00am 8.9 7.3 8.1 95 0.4 E 6 7 3 4 1026.5 1026.5 0.0
26/04:30am 9.4 7.6 8.1 92 0.6 E 7 9 4 5 1026.5 1026.5 0.0
26/04:00am 10.2 7.3 8.1 87 1.0 E 13 15 7 8 1026.6 1026.6 0.0
26/03:30am 10.3 7.0 8.2 87 1.0 E 15 20 8 11 1026.5 1026.5 0.0
26/03:00am 10.4 7.5 8.1 86 1.1 E 13 19 7 10 1027.0 1027.0 0.0
26/02:30am 10.1 7.6 8.2 88 0.9 ESE 11 15 6 8 1027.4 1027.4 0.0
26/02:00am 10.3 6.9 7.8 84 1.2 E 15 19 8 10 1027.6 1027.6 0.0
26/01:30am 9.9 7.3 7.6 85 1.1 E 11 15 6 8 1027.9 1027.9 0.0
26/01:00am 10.0 7.0 7.7 86 1.1 E 13 17 7 9 1027.8 1027.8 0.0
26/12:30am 10.3 6.9 7.6 83 1.3 E 15 19 8 10 1027.9 1027.9 0.0
26/12:00am 10.5 7.5 7.6 82 1.4 E 13 17 7 9 1028.4 1028.4 0.0
 
Date/Time
CST
Temp
°C
App
Temp
°C
Dew
Point
Rel
Hum
%
Delta-T
°C
Wind Press
QNH
hPa
Press
MSL
hPa
Rain
since 9 am
mm
Dir
 
Spd
km/h
Gust
km/h
Spd
kts
Gust
kts
25/11:30pm 10.5 7.5 7.6 82 1.4 ESE 13 17 7 9 1028.6 1028.6 0.0
25/11:00pm 11.2 7.0 7.4 77 1.8 ESE 19 24 10 13 1028.6 1028.6 0.0
25/10:30pm 11.5 7.3 7.5 76 1.9 SE 19 26 10 14 1029.0 1029.0 0.0
25/10:00pm 11.4 7.0 7.4 76 1.9 SE 20 28 11 15 1029.1 1029.1 0.0
25/09:30pm 11.5 7.1 7.5 76 1.9 SE 20 28 11 15 1029.1 1029.1 0.0
25/09:00pm 11.5 7.8 7.8 78 1.8 SE 17 26 9 14 1029.3 1029.3 0.0
25/08:30pm 11.7 7.4 7.8 77 1.9 SE 20 24 11 13 1029.3 1029.3 0.0
25/08:00pm 11.8 7.9 8.5 80 1.6 SE 19 22 10 12 1029.2 1029.2 0.0
25/07:30pm 12.0 8.5 8.8 81 1.6 SSE 17 20 9 11 1029.1 1029.1 0.0
25/07:00pm 11.9 8.4 8.7 81 1.6 S 17 22 9 12 1029.0 1029.0 0.0
25/06:30pm 11.7 8.0 8.0 78 1.8 S 17 20 9 11 1028.9 1028.9 0.0
25/06:00pm 11.5 8.6 8.2 80 1.6 S 13 17 7 9 1028.6 1028.6 0.0
25/05:30pm 11.9 9.4 8.0 77 1.9 S 11 15 6 8 1028.5 1028.5 0.0
25/05:00pm 12.5 10.0 8.0 74 2.2 SSW 11 15 6 8 1028.3 1028.3 0.0
25/04:30pm 13.3 11.0 7.5 68 2.8 SSE 9 13 5 7 1028.3 1028.3 0.0

Other Formats:

Comma delimited format used in spreadsheet applications
http://www.bom.gov.au/fwo/IDS60801/IDS60801.94809.axf

JavaScript Object Notation format (JSON) in row-major order
http://www.bom.gov.au/fwo/IDS60801/IDS60801.94809.json